Austin, TX (78715)

7:39 PM CDT on April 24, 2015 (GMT -0500)
West Gate @ Blarwood | | Change Station
CLOSE
Current Station
Personal Weather Station
Location: Austin, TX
Elevation: 700 ft
Nearby Weather Stations

Elev 700 ft 30.21 °N, 97.81 °W | Updated 25 seconds ago

Overcast
Overcast
80.9 °F
Feels Like 86 °F
N
2.0
Wind Variable Wind from South
Gusts 8.0 mph

Today
High -- | Low -- °F
--% Chance of Precip.
Yesterday
High -- | Low -- °F
Precip. -- in
6:54 AM 8:04 PM
Waxing Crescent, 40% visible
Pressure 29.66 in
Visibility 10.0 miles
Clouds Mostly Cloudy 3100 ft
Mostly Cloudy 4500 ft
Mostly Cloudy 8000 ft
Heat Index 86 °F
Dew Point 74 °F
Humidity 80%
Rainfall 0.46 in
Snow Depth Not available.
UV 0 out of 12
Pollen 8.50 out of 12
Air Quality Not available.
Flu Activity Local Activity
METAR KAUS 242353Z 17008KT 10SM BKN031 BKN045 BKN080 27/23 A2969 RMK AO2 SLP043 T02670228 10289 20256 56014

More Conditions Fewer Conditions

Pressure 29.66 in
Visibility 10.0 miles
Clouds Mostly Cloudy 3100 ft
Mostly Cloudy 4500 ft
Mostly Cloudy 8000 ft
Heat Index 86 °F
Dew Point 74 °F
Humidity 80%
Rainfall 0.46 in
Snow Depth Not available.
UV 0 out of 12
Pollen 8.50 out of 12
Air Quality Not available.
Flu Activity Local Activity
METAR KAUS 242353Z 17008KT 10SM BKN031 BKN045 BKN080 27/23 A2969 RMK AO2 SLP043 T02670228 10289 20256 56014

More Conditions Fewer Conditions

There is an enhanced risk of severe weather for parts of Texas, Louisiana, southern Arkansas, and Kansas. A slight risk of severe weather encompasses a wide area of the Plains and Lower Mississippi Valley as well. This means severe thunderstorms will be capable of producing strong wind, large hail, heavy rain, and the possibility of tornadoes into the evening.

10-Day Weather Forecast

Almanac

Astronomy

Apr. 24, 2015 Rise Set
Actual Time
Civil Twilight
Nautical Twilight
Astronomical Twilight
Moon
Length of Visible Light
Length of Day
Tomorrow will be .
, % of the Moon is Illuminated

Today's Extremes

State Highs State Lows

Community

WunderPhotos

Upload Photos

1,816,516 photos uploaded!

WunderBlogs® & News

Nearby

Air Quality

  Air Quality AQ Index Pollutant
Not available.

Snow Depth

Station Depth Elevation

Earthquake Activity

City Distance Mag. Time & Date
Minimum magnitude displayed is 2.5.

Coastal Water Temperatures

Place Temperature

Stations

Nearby Weather Stations

Station Location Temp. Windchill Dew Point Humidity Wind Precip. Elev Updated Type